createdAt,value
2022-11-09T00:00:50.876Z,13.55
2022-11-09T00:01:50.929Z,13.57
2022-11-09T00:02:50.857Z,13.63
2022-11-09T00:03:50.891Z,13.54
2022-11-09T00:04:50.814Z,13.54
2022-11-09T00:05:50.859Z,13.53
2022-11-09T00:06:50.875Z,13.57
2022-11-09T00:07:50.893Z,13.66
2022-11-09T00:08:50.781Z,13.66
2022-11-09T00:09:50.832Z,13.71
2022-11-09T00:10:50.804Z,13.66
2022-11-09T00:11:50.762Z,13.54
2022-11-09T00:12:50.756Z,13.72
2022-11-09T00:13:50.732Z,13.71
2022-11-09T00:14:50.759Z,13.68
2022-11-09T00:15:50.775Z,13.71
2022-11-09T00:16:50.705Z,13.79
2022-11-09T00:17:50.689Z,13.72
2022-11-09T00:18:50.756Z,13.76
2022-11-09T00:19:50.646Z,13.72
2022-11-09T00:20:50.688Z,13.68
2022-11-09T00:21:50.646Z,13.66
2022-11-09T00:22:50.616Z,13.66
2022-11-09T00:23:50.603Z,13.65
2022-11-09T00:24:50.633Z,13.63
2022-11-09T00:25:50.596Z,13.66
2022-11-09T00:26:50.599Z,13.79
2022-11-09T00:27:50.567Z,13.73
2022-11-09T00:28:50.561Z,13.73
2022-11-09T00:29:50.723Z,13.71
2022-11-09T00:30:50.537Z,13.73
2022-11-09T00:31:50.577Z,13.69
2022-11-09T00:32:50.590Z,13.69
2022-11-09T00:33:50.495Z,13.68
2022-11-09T00:34:50.488Z,13.75
2022-11-09T00:35:50.519Z,13.75
2022-11-09T00:36:50.564Z,13.75
2022-11-09T00:37:50.656Z,13.76
2022-11-09T00:38:50.448Z,13.76
2022-11-09T00:39:50.450Z,13.79
2022-11-09T00:40:50.456Z,13.76
2022-11-09T00:41:50.410Z,13.79
2022-11-09T00:42:50.469Z,13.75
2022-11-09T00:43:50.446Z,13.73
2022-11-09T00:44:50.382Z,13.69
2022-11-09T00:45:50.404Z,13.73
2022-11-09T00:46:50.374Z,13.72
2022-11-09T00:47:50.601Z,13.66
2022-11-09T00:48:50.337Z,13.59
2022-11-09T00:49:50.339Z,13.66
2022-11-09T00:50:50.377Z,13.61
2022-11-09T00:51:50.358Z,13.61
2022-11-09T00:52:50.418Z,13.63
2022-11-09T00:53:50.320Z,13.66
2022-11-09T00:54:50.295Z,13.59
2022-11-09T00:55:50.300Z,13.43
2022-11-09T00:56:50.317Z,13.39
2022-11-09T00:57:50.282Z,13.27
2022-11-09T00:58:50.225Z,13.27
2022-11-09T00:59:50.243Z,13.07
2022-11-09T01:00:50.313Z,13.10
2022-11-09T01:01:50.335Z,12.95
2022-11-09T01:02:50.177Z,12.94
2022-11-09T01:03:50.192Z,12.85
2022-11-09T01:04:50.184Z,12.74
2022-11-09T01:05:50.166Z,12.59
2022-11-09T01:06:50.227Z,12.56
2022-11-09T01:07:50.177Z,12.59
2022-11-09T01:08:50.127Z,12.44
2022-11-09T01:09:50.115Z,12.43
2022-11-09T01:10:50.090Z,12.34
2022-11-09T01:11:50.102Z,12.43
2022-11-09T01:12:50.118Z,12.40
2022-11-09T01:13:50.056Z,12.30
2022-11-09T01:14:50.058Z,12.29
2022-11-09T01:15:50.078Z,12.12
2022-11-09T01:16:50.063Z,12.11
2022-11-09T01:17:50.057Z,12.11
2022-11-09T01:18:50.048Z,12.19
2022-11-09T01:19:50.044Z,12.11
2022-11-09T01:20:50.034Z,12.30
2022-11-09T01:21:49.968Z,12.33
2022-11-09T01:22:49.969Z,12.26
2022-11-09T01:23:49.969Z,12.34
2022-11-09T01:24:49.948Z,12.33
2022-11-09T01:25:49.963Z,12.36
2022-11-09T01:26:49.964Z,12.38
2022-11-09T01:27:49.932Z,12.40
2022-11-09T01:28:49.930Z,12.52
2022-11-09T01:29:49.976Z,12.51
2022-11-09T01:30:49.902Z,12.55
2022-11-09T01:31:49.860Z,12.55
2022-11-09T01:32:49.864Z,12.58
2022-11-09T01:33:49.837Z,12.73
2022-11-09T01:34:49.825Z,12.74
2022-11-09T01:35:49.829Z,12.73
2022-11-09T01:36:49.830Z,12.81
2022-11-09T01:37:50.078Z,12.85
2022-11-09T01:38:49.837Z,12.92
2022-11-09T01:39:49.781Z,12.88
2022-11-09T01:40:49.816Z,12.98
2022-11-09T01:41:49.769Z,13.03
2022-11-09T01:42:49.750Z,13.04
2022-11-09T01:43:49.756Z,13.04
2022-11-09T01:44:49.750Z,12.99
2022-11-09T01:45:49.834Z,13.01
2022-11-09T01:46:49.699Z,13.04
2022-11-09T01:47:49.691Z,12.96
2022-11-09T01:48:49.701Z,12.99
2022-11-09T01:49:49.708Z,12.94
2022-11-09T01:50:49.656Z,12.89
2022-11-09T01:51:49.667Z,12.71
2022-11-09T01:52:49.663Z,12.73
2022-11-09T01:53:49.633Z,12.70
2022-11-09T01:54:49.663Z,12.69
2022-11-09T01:55:49.613Z,12.74
2022-11-09T01:56:49.610Z,12.67
2022-11-09T01:57:49.609Z,12.58
2022-11-09T01:58:49.725Z,12.63
2022-11-09T01:59:49.568Z,12.59
2022-11-09T02:00:49.601Z,12.51
2022-11-09T02:01:49.578Z,12.51
2022-11-09T02:02:49.573Z,12.59
2022-11-09T02:03:49.573Z,12.52
2022-11-09T02:04:49.520Z,12.46
2022-11-09T02:05:49.492Z,12.58
2022-11-09T02:06:49.537Z,12.51
2022-11-09T02:07:49.556Z,12.51
2022-11-09T02:08:49.483Z,12.37
2022-11-09T02:09:49.475Z,12.40
2022-11-09T02:10:49.589Z,12.40
2022-11-09T02:11:49.441Z,12.40
2022-11-09T02:12:49.466Z,12.36
2022-11-09T02:13:49.442Z,12.40
2022-11-09T02:14:49.398Z,12.41
2022-11-09T02:15:49.480Z,12.37
2022-11-09T02:16:49.440Z,12.41
2022-11-09T02:17:49.380Z,12.40
2022-11-09T02:18:49.395Z,12.40
2022-11-09T02:19:49.343Z,12.33
2022-11-09T02:20:49.361Z,12.33
2022-11-09T02:21:49.321Z,12.36
2022-11-09T02:22:49.382Z,12.43
2022-11-09T02:23:49.291Z,12.33
2022-11-09T02:24:51.804Z,12.34
2022-11-09T02:25:50.316Z,12.38
2022-11-09T02:26:49.262Z,12.41
2022-11-09T02:27:49.272Z,12.41
2022-11-09T02:28:49.264Z,12.49
2022-11-09T02:29:49.272Z,12.40
2022-11-09T02:30:49.222Z,12.38
2022-11-09T02:31:49.225Z,12.38
2022-11-09T02:32:49.204Z,12.44
2022-11-09T02:33:49.203Z,12.40
2022-11-09T02:34:49.176Z,12.41
2022-11-09T02:35:49.262Z,12.41
2022-11-09T02:36:49.267Z,12.48
2022-11-09T02:37:49.151Z,12.52
2022-11-09T02:38:49.130Z,12.46
2022-11-09T02:39:49.122Z,12.40
2022-11-09T02:40:49.135Z,12.41
2022-11-09T02:41:49.130Z,12.40
2022-11-09T02:42:49.083Z,12.46
2022-11-09T02:43:49.184Z,12.49
2022-11-09T02:44:49.071Z,12.56
2022-11-09T02:45:49.079Z,12.67
2022-11-09T02:46:49.072Z,12.74
2022-11-09T02:47:49.058Z,12.73
2022-11-09T02:48:49.044Z,12.84
2022-11-09T02:49:49.008Z,12.98
2022-11-09T02:50:49.051Z,12.95
2022-11-09T02:51:49.014Z,13.01
2022-11-09T02:52:49.030Z,13.14
2022-11-09T02:53:48.971Z,13.16
2022-11-09T02:54:48.978Z,13.29
2022-11-09T02:55:48.968Z,13.28
2022-11-09T02:56:49.003Z,13.31
2022-11-09T02:57:48.927Z,13.32
2022-11-09T02:58:48.916Z,13.38
2022-11-09T02:59:48.912Z,13.38
2022-11-09T03:00:48.946Z,13.35
2022-11-09T03:01:48.898Z,13.27
2022-11-09T03:02:48.912Z,13.27
2022-11-09T03:03:48.866Z,13.25
2022-11-09T03:04:48.865Z,13.39
2022-11-09T03:05:48.861Z,13.35
2022-11-09T03:06:48.891Z,13.46
2022-11-09T03:07:48.859Z,13.46
2022-11-09T03:08:48.804Z,13.36
2022-11-09T03:09:48.843Z,13.39
2022-11-09T03:10:48.809Z,13.46
2022-11-09T03:11:48.818Z,13.43
2022-11-09T03:12:48.797Z,13.44
2022-11-09T03:13:48.781Z,13.44
2022-11-09T03:14:48.751Z,13.50
2022-11-09T03:15:48.757Z,13.44
2022-11-09T03:16:50.825Z,13.41
2022-11-09T03:17:48.752Z,13.38
2022-11-09T03:18:48.735Z,13.48
2022-11-09T03:19:48.683Z,13.36
2022-11-09T03:20:48.684Z,13.39
2022-11-09T03:21:48.664Z,13.38
2022-11-09T03:22:48.711Z,13.44
2022-11-09T03:23:48.642Z,13.31
2022-11-09T03:24:48.638Z,13.32
2022-11-09T03:25:48.650Z,13.38
2022-11-09T03:26:48.635Z,13.35
2022-11-09T03:27:48.617Z,13.35
2022-11-09T03:28:48.639Z,13.35
2022-11-09T03:29:48.614Z,13.35
2022-11-09T03:30:48.585Z,13.35
2022-11-09T03:31:48.586Z,13.36
2022-11-09T03:32:50.786Z,13.38
2022-11-09T03:33:48.550Z,13.39
2022-11-09T03:34:48.545Z,13.41
2022-11-09T03:35:48.526Z,13.44
2022-11-09T03:36:48.545Z,13.41
2022-11-09T03:37:48.605Z,13.39
2022-11-09T03:38:48.482Z,13.39
2022-11-09T03:39:48.469Z,13.36
2022-11-09T03:40:48.545Z,13.41
2022-11-09T03:41:48.460Z,13.31
2022-11-09T03:42:48.477Z,13.36
2022-11-09T03:43:48.445Z,13.38
2022-11-09T03:44:48.469Z,13.38
2022-11-09T03:45:48.484Z,13.39
2022-11-09T03:46:48.461Z,13.51
2022-11-09T03:47:48.406Z,13.43
2022-11-09T03:48:48.386Z,13.38
2022-11-09T03:49:48.400Z,13.47
2022-11-09T03:50:48.372Z,13.41
2022-11-09T03:51:48.335Z,13.41
2022-11-09T03:52:48.355Z,13.41
2022-11-09T03:53:48.362Z,13.47
2022-11-09T03:54:48.300Z,13.50
2022-11-09T03:55:48.304Z,13.48
2022-11-09T03:56:48.279Z,13.51
2022-11-09T03:57:48.318Z,13.48
2022-11-09T03:58:48.290Z,13.55
2022-11-09T03:59:48.284Z,13.54
2022-11-09T04:00:48.285Z,13.55
2022-11-09T04:01:48.314Z,13.51
2022-11-09T04:02:48.222Z,13.51
2022-11-09T04:03:48.228Z,13.65
2022-11-09T04:04:48.222Z,13.59
2022-11-09T04:05:48.194Z,13.55
2022-11-09T04:06:48.323Z,13.54
2022-11-09T04:07:48.160Z,13.51
2022-11-09T04:08:51.404Z,13.54
2022-11-09T04:09:48.141Z,13.63
2022-11-09T04:10:48.143Z,13.51
2022-11-09T04:11:48.358Z,13.65
2022-11-09T04:12:48.108Z,13.62
2022-11-09T04:13:48.099Z,13.59
2022-11-09T04:14:48.109Z,13.54
2022-11-09T04:15:48.117Z,13.55
2022-11-09T04:16:48.140Z,13.63
2022-11-09T04:17:48.047Z,13.62
2022-11-09T04:18:48.108Z,13.71
2022-11-09T04:19:48.029Z,13.55
2022-11-09T04:20:48.159Z,13.69
2022-11-09T04:21:48.075Z,13.71
2022-11-09T04:22:48.030Z,13.69
2022-11-09T04:23:47.982Z,13.63
2022-11-09T04:24:47.974Z,13.71
2022-11-09T04:25:48.144Z,13.65
2022-11-09T04:26:47.951Z,13.66
2022-11-09T04:27:48.054Z,13.63
2022-11-09T04:28:47.946Z,13.61
2022-11-09T04:29:47.914Z,13.55
2022-11-09T04:30:47.920Z,13.51
2022-11-09T04:31:47.892Z,13.53
2022-11-09T04:32:47.888Z,13.53
2022-11-09T04:33:47.926Z,13.47
2022-11-09T04:34:47.865Z,13.55
2022-11-09T04:35:47.883Z,13.54
2022-11-09T04:36:47.840Z,13.55
2022-11-09T04:37:47.864Z,13.65
2022-11-09T04:38:47.819Z,13.62
2022-11-09T04:39:47.821Z,13.62
2022-11-09T04:40:47.838Z,13.53
2022-11-09T04:41:47.816Z,13.53
2022-11-09T04:42:47.803Z,13.50
2022-11-09T04:43:47.798Z,13.53
2022-11-09T04:44:47.756Z,13.55
2022-11-09T04:45:47.847Z,13.59
2022-11-09T04:46:47.763Z,13.54
2022-11-09T04:47:47.772Z,13.57
2022-11-09T04:48:47.803Z,13.55
2022-11-09T04:49:47.738Z,13.53
2022-11-09T04:50:47.686Z,13.54
2022-11-09T04:51:47.689Z,13.48
2022-11-09T04:52:47.769Z,13.47
2022-11-09T04:53:47.719Z,13.53
2022-11-09T04:54:47.663Z,13.50
2022-11-09T04:55:47.712Z,13.48
2022-11-09T04:56:47.632Z,13.35
2022-11-09T04:57:47.632Z,13.36
2022-11-09T04:58:47.653Z,13.38
2022-11-09T04:59:47.648Z,13.32
2022-11-09T05:00:47.649Z,13.29
2022-11-09T05:01:47.609Z,13.36
2022-11-09T05:02:47.576Z,13.32
2022-11-09T05:03:47.653Z,13.31
2022-11-09T05:04:47.572Z,13.19
2022-11-09T05:05:48.662Z,13.14
2022-11-09T05:06:47.603Z,13.17
2022-11-09T05:07:47.514Z,13.10
2022-11-09T05:08:47.523Z,13.09
2022-11-09T05:09:47.508Z,13.04
2022-11-09T05:10:47.562Z,12.98
2022-11-09T05:11:47.473Z,13.10
2022-11-09T05:12:47.466Z,13.12
2022-11-09T05:13:47.504Z,13.06
2022-11-09T05:14:47.450Z,13.07
2022-11-09T05:15:47.486Z,13.03
2022-11-09T05:16:47.482Z,13.09
2022-11-09T05:17:47.418Z,13.16
2022-11-09T05:18:47.405Z,13.13
2022-11-09T05:19:48.263Z,13.22
2022-11-09T05:20:47.372Z,13.21
2022-11-09T05:21:47.444Z,13.17
2022-11-09T05:22:47.386Z,13.14
2022-11-09T05:23:47.341Z,13.01
2022-11-09T05:24:47.353Z,13.01
2022-11-09T05:25:47.361Z,12.96
2022-11-09T05:26:47.295Z,13.07
2022-11-09T05:27:47.282Z,13.14
2022-11-09T05:28:47.319Z,13.13
2022-11-09T05:29:47.310Z,13.17
2022-11-09T05:30:47.258Z,13.22
2022-11-09T05:31:52.006Z,13.19
2022-11-09T05:32:47.234Z,13.17
2022-11-09T05:33:47.244Z,13.12
2022-11-09T05:34:47.234Z,13.09
2022-11-09T05:35:47.194Z,13.06
2022-11-09T05:36:47.184Z,13.09
2022-11-09T05:37:47.173Z,13.07
2022-11-09T05:38:47.194Z,13.07
2022-11-09T05:39:47.191Z,13.04
2022-11-09T05:40:47.171Z,13.04
2022-11-09T05:41:47.158Z,13.04
2022-11-09T05:42:47.142Z,13.06
2022-11-09T05:43:47.111Z,12.98
2022-11-09T05:44:47.152Z,13.01
2022-11-09T05:45:47.157Z,13.03
2022-11-09T05:46:47.116Z,12.88
2022-11-09T05:47:47.086Z,12.89
2022-11-09T05:48:47.125Z,13.01
2022-11-09T05:49:47.052Z,12.92
2022-11-09T05:50:47.066Z,12.99
2022-11-09T05:51:47.075Z,13.03
2022-11-09T05:52:47.013Z,12.89
2022-11-09T05:53:47.318Z,12.95
2022-11-09T05:54:47.055Z,12.88
2022-11-09T05:55:47.049Z,12.96
2022-11-09T05:56:46.975Z,12.95
2022-11-09T05:57:46.973Z,12.99
2022-11-09T05:58:46.992Z,12.98
2022-11-09T05:59:46.967Z,12.98
2022-11-09T06:00:46.998Z,12.98
2022-11-09T06:01:46.976Z,13.01
2022-11-09T06:02:46.918Z,12.98
2022-11-09T06:03:46.936Z,13.01
2022-11-09T06:04:46.880Z,12.98
2022-11-09T06:05:46.913Z,13.01
2022-11-09T06:06:46.909Z,12.94
2022-11-09T06:07:46.887Z,12.92
2022-11-09T06:08:46.890Z,12.96
2022-11-09T06:09:46.875Z,12.96
2022-11-09T06:10:46.848Z,12.96
2022-11-09T06:11:46.808Z,12.98
2022-11-09T06:12:46.880Z,12.92
2022-11-09T06:13:46.820Z,13.01
2022-11-09T06:14:46.784Z,12.99
2022-11-09T06:15:46.851Z,12.98
2022-11-09T06:16:46.767Z,12.98
2022-11-09T06:17:46.780Z,12.98
2022-11-09T06:18:46.756Z,13.03
2022-11-09T06:19:46.731Z,13.04
2022-11-09T06:20:46.778Z,13.04
2022-11-09T06:21:46.735Z,12.96
2022-11-09T06:22:46.696Z,12.96
2022-11-09T06:23:46.723Z,13.01
2022-11-09T06:24:46.676Z,12.96
2022-11-09T06:25:46.690Z,12.99
2022-11-09T06:26:46.648Z,13.10
2022-11-09T06:27:46.681Z,13.07
2022-11-09T06:28:46.655Z,13.09
2022-11-09T06:29:46.628Z,13.22
2022-11-09T06:30:46.660Z,13.14
2022-11-09T06:31:46.634Z,13.13
2022-11-09T06:32:46.579Z,13.16
2022-11-09T06:33:46.573Z,13.22
2022-11-09T06:34:46.562Z,13.22
2022-11-09T06:35:46.610Z,13.27
2022-11-09T06:36:46.571Z,13.25
2022-11-09T06:37:46.563Z,13.29
2022-11-09T06:38:46.598Z,13.29
2022-11-09T06:39:46.621Z,13.27
2022-11-09T06:40:46.539Z,13.22
2022-11-09T06:41:47.785Z,13.27
2022-11-09T06:42:46.558Z,13.27
2022-11-09T06:43:46.456Z,13.27
2022-11-09T06:44:46.485Z,13.27
2022-11-09T06:45:46.524Z,13.32
2022-11-09T06:46:46.413Z,13.22
2022-11-09T06:47:46.431Z,13.31
2022-11-09T06:48:49.451Z,13.36
2022-11-09T06:49:47.428Z,13.29
2022-11-09T06:50:46.414Z,13.35
2022-11-09T06:51:46.367Z,13.25
2022-11-09T06:52:46.360Z,13.35
2022-11-09T06:53:46.339Z,13.29
2022-11-09T06:54:46.335Z,13.35
2022-11-09T06:55:50.572Z,13.43
2022-11-09T06:56:46.412Z,13.35
2022-11-09T06:57:46.334Z,13.36
2022-11-09T06:58:46.319Z,13.39
2022-11-09T06:59:46.318Z,13.31
2022-11-09T07:00:46.338Z,13.55
2022-11-09T07:01:46.494Z,13.54
2022-11-09T07:02:46.266Z,13.53
2022-11-09T07:03:46.280Z,13.50
2022-11-09T07:04:46.263Z,13.53
2022-11-09T07:05:46.224Z,13.41
2022-11-09T07:06:46.322Z,13.38
2022-11-09T07:07:46.194Z,13.41
2022-11-09T07:08:46.273Z,13.39
2022-11-09T07:09:46.195Z,13.41
2022-11-09T07:10:46.195Z,13.43
2022-11-09T07:11:46.192Z,13.38
2022-11-09T07:12:46.150Z,13.41
2022-11-09T07:13:46.141Z,13.51
2022-11-09T07:14:46.195Z,13.51
2022-11-09T07:15:46.097Z,13.55
2022-11-09T07:16:46.136Z,13.63
2022-11-09T07:17:46.100Z,13.66
2022-11-09T07:18:46.092Z,13.72
2022-11-09T07:19:46.077Z,13.76
2022-11-09T07:20:46.041Z,13.75
2022-11-09T07:21:46.045Z,13.76
2022-11-09T07:22:46.061Z,13.72
2022-11-09T07:23:46.026Z,13.72
2022-11-09T07:24:46.104Z,13.75
2022-11-09T07:25:45.988Z,13.63
2022-11-09T07:26:46.007Z,13.57
2022-11-09T07:27:46.028Z,13.59
2022-11-09T07:28:45.975Z,13.57
2022-11-09T07:29:45.974Z,13.61
2022-11-09T07:30:45.960Z,13.62
2022-11-09T07:31:46.000Z,13.59
2022-11-09T07:33:15.668Z,13.61
2022-11-09T07:33:46.930Z,13.57
2022-11-09T07:34:45.885Z,13.57
2022-11-09T07:35:45.905Z,13.41
2022-11-09T07:36:45.892Z,13.48
2022-11-09T07:37:45.900Z,13.38
2022-11-09T07:38:45.859Z,13.35
2022-11-09T07:39:45.895Z,13.35
2022-11-09T07:40:45.864Z,13.39
2022-11-09T07:41:45.812Z,13.41
2022-11-09T07:42:45.833Z,13.36
2022-11-09T07:43:45.937Z,13.46
2022-11-09T07:44:45.807Z,13.41
2022-11-09T07:45:45.844Z,13.41
2022-11-09T07:46:45.787Z,13.29
2022-11-09T07:47:45.754Z,13.38
2022-11-09T07:48:45.758Z,13.32
2022-11-09T07:49:45.773Z,13.27
2022-11-09T07:50:45.725Z,13.31
2022-11-09T07:51:45.790Z,13.36
2022-11-09T07:52:45.689Z,13.29
2022-11-09T07:53:45.676Z,13.35
2022-11-09T07:54:50.887Z,13.44
2022-11-09T07:55:46.742Z,13.46
2022-11-09T07:56:45.706Z,13.44
2022-11-09T07:57:45.635Z,13.46
2022-11-09T07:58:45.692Z,13.41
2022-11-09T07:59:45.682Z,13.53
2022-11-09T08:00:45.661Z,13.50
2022-11-09T08:01:45.640Z,13.47
2022-11-09T08:02:45.609Z,13.55
2022-11-09T08:03:45.573Z,13.62
2022-11-09T08:04:45.630Z,13.62
2022-11-09T08:05:45.581Z,13.66
2022-11-09T08:06:45.620Z,13.63
2022-11-09T08:07:45.555Z,13.63
2022-11-09T08:08:45.518Z,13.66
2022-11-09T08:09:45.652Z,13.80
2022-11-09T08:10:45.525Z,13.91
2022-11-09T08:11:45.500Z,13.90
2022-11-09T08:12:45.485Z,14.02
2022-11-09T08:13:45.460Z,14.08
2022-11-09T08:14:45.558Z,14.11
2022-11-09T08:15:45.463Z,14.17
2022-11-09T08:16:45.430Z,14.26
2022-11-09T08:17:45.555Z,14.31
2022-11-09T08:18:45.409Z,14.38
2022-11-09T08:19:45.455Z,14.29
2022-11-09T08:20:45.411Z,14.31
2022-11-09T08:21:45.396Z,14.26
2022-11-09T08:22:45.429Z,14.42
2022-11-09T08:23:45.387Z,14.36
2022-11-09T08:24:45.353Z,14.35
2022-11-09T08:25:45.396Z,14.34
2022-11-09T08:26:45.347Z,14.36
2022-11-09T08:27:45.348Z,14.49
2022-11-09T08:28:45.322Z,14.48
2022-11-09T08:29:45.281Z,14.49
2022-11-09T08:30:45.306Z,14.57
2022-11-09T08:31:45.289Z,14.64
2022-11-09T08:32:45.249Z,14.74
2022-11-09T08:33:45.261Z,14.78
2022-11-09T08:34:45.228Z,14.75
2022-11-09T08:35:48.033Z,14.82
2022-11-09T08:36:46.243Z,14.98
2022-11-09T08:37:45.217Z,14.83
2022-11-09T08:38:45.195Z,14.93
2022-11-09T08:39:45.203Z,14.93
2022-11-09T08:40:45.169Z,15.00
2022-11-09T08:41:45.263Z,15.00
2022-11-09T08:42:45.212Z,15.12
2022-11-09T08:43:45.168Z,15.15
2022-11-09T08:44:45.128Z,15.25
2022-11-09T08:45:45.142Z,15.35
2022-11-09T08:46:45.147Z,15.38
2022-11-09T08:47:45.134Z,15.35
2022-11-09T08:48:45.101Z,15.40
2022-11-09T08:49:45.171Z,15.49
2022-11-09T08:50:45.168Z,15.56
2022-11-09T08:51:45.059Z,15.64
2022-11-09T08:52:45.096Z,15.66
2022-11-09T08:53:45.040Z,15.62
2022-11-09T08:54:45.203Z,15.64
2022-11-09T08:55:49.361Z,15.62
2022-11-09T08:56:45.118Z,15.66
2022-11-09T08:57:44.999Z,15.70
2022-11-09T08:58:44.971Z,15.88
2022-11-09T08:59:44.983Z,15.85
2022-11-09T09:00:44.997Z,15.86
2022-11-09T09:01:44.991Z,15.88
2022-11-09T09:02:44.943Z,15.88
2022-11-09T09:03:44.917Z,15.81
2022-11-09T09:04:44.939Z,15.85
2022-11-09T09:05:44.919Z,15.80
2022-11-09T09:06:45.058Z,15.80
2022-11-09T09:07:44.880Z,15.85
2022-11-09T09:08:44.901Z,15.92
2022-11-09T09:09:44.880Z,15.86
2022-11-09T09:10:44.910Z,15.95
2022-11-09T09:11:44.857Z,15.98
2022-11-09T09:12:44.826Z,15.92
2022-11-09T09:13:44.803Z,16.08
2022-11-09T09:14:44.887Z,16.06
2022-11-09T09:15:44.799Z,16.11
2022-11-09T09:16:44.792Z,16.29
2022-11-09T09:17:44.785Z,16.45
2022-11-09T09:18:44.781Z,16.54
2022-11-09T09:19:49.834Z,16.78
2022-11-09T09:20:45.998Z,16.73
2022-11-09T09:21:44.741Z,16.84
2022-11-09T09:22:44.712Z,16.92
2022-11-09T09:23:44.731Z,17.14
2022-11-09T09:24:44.676Z,17.18
2022-11-09T09:25:44.699Z,17.21
2022-11-09T09:26:44.751Z,17.33
2022-11-09T09:27:44.673Z,17.25
2022-11-09T09:28:51.381Z,17.25
2022-11-09T09:29:47.274Z,17.36
2022-11-09T09:30:44.652Z,17.38
2022-11-09T09:31:44.599Z,17.25
2022-11-09T09:32:44.600Z,17.32
2022-11-09T09:33:44.587Z,17.25
2022-11-09T09:34:44.615Z,17.27
2022-11-09T09:35:44.593Z,17.33
2022-11-09T09:36:47.944Z,17.30
2022-11-09T09:37:49.644Z,17.30
2022-11-09T09:38:44.520Z,17.27
2022-11-09T09:39:44.523Z,17.30
2022-11-09T09:40:44.545Z,17.24
2022-11-09T09:41:44.506Z,17.28
2022-11-09T09:42:44.475Z,17.35
2022-11-09T09:43:44.490Z,17.40
2022-11-09T09:44:44.517Z,17.38
2022-11-09T09:45:44.513Z,17.40
2022-11-09T09:46:50.259Z,17.36
2022-11-09T09:47:45.456Z,17.35
2022-11-09T09:48:44.496Z,17.45
2022-11-09T09:49:44.500Z,17.36
2022-11-09T09:50:44.391Z,17.38
2022-11-09T09:51:44.429Z,17.36
2022-11-09T09:52:54.130Z,17.28
2022-11-09T09:53:45.422Z,17.21
2022-11-09T09:54:45.356Z,17.27
2022-11-09T09:55:51.593Z,17.15
2022-11-09T09:56:44.343Z,17.24
2022-11-09T09:57:44.333Z,17.17
2022-11-09T09:58:44.300Z,17.14
2022-11-09T09:59:44.298Z,17.00
2022-11-09T10:00:44.371Z,16.98
2022-11-09T10:01:44.368Z,16.90
2022-11-09T10:02:44.296Z,16.90
2022-11-09T10:03:44.840Z,16.95
2022-11-09T10:04:51.228Z,16.92
2022-11-09T10:05:45.305Z,16.99
2022-11-09T10:06:44.310Z,16.99
2022-11-09T10:07:44.218Z,16.95
2022-11-09T10:08:44.226Z,16.90
2022-11-09T10:09:44.217Z,17.00
2022-11-09T10:10:44.174Z,17.02
2022-11-09T10:11:44.179Z,16.85
2022-11-09T10:12:44.277Z,16.82
2022-11-09T10:13:44.335Z,16.88
2022-11-09T10:14:44.199Z,16.90
2022-11-09T10:15:44.142Z,16.88
2022-11-09T10:16:44.130Z,16.82
2022-11-09T10:17:44.110Z,16.82
2022-11-09T10:18:44.104Z,16.78
2022-11-09T10:19:44.139Z,16.73
2022-11-09T10:20:44.515Z,16.67
2022-11-09T10:21:44.671Z,16.69
2022-11-09T10:22:51.592Z,16.65
2022-11-09T10:23:45.042Z,16.65
2022-11-09T10:24:58.575Z,16.66
2022-11-09T10:26:03.163Z,16.73
2022-11-09T10:26:45.007Z,16.73
2022-11-09T10:27:44.065Z,16.72
2022-11-09T10:29:13.879Z,16.60
2022-11-09T10:29:45.052Z,16.60
2022-11-09T10:30:44.268Z,16.65
2022-11-09T10:31:49.721Z,16.62
2022-11-09T10:32:44.983Z,16.65
2022-11-09T10:33:43.949Z,16.62
2022-11-09T10:34:43.930Z,16.54
2022-11-09T10:35:43.899Z,16.47
2022-11-09T10:36:43.891Z,16.45
2022-11-09T10:37:43.880Z,16.37
2022-11-09T10:38:43.875Z,16.33
2022-11-09T10:39:45.845Z,16.37
2022-11-09T10:40:46.775Z,16.33
2022-11-09T10:41:43.833Z,16.23
2022-11-09T10:42:43.846Z,16.17
2022-11-09T10:43:43.844Z,16.10
2022-11-09T10:44:43.816Z,16.11
2022-11-09T10:45:43.866Z,16.01
2022-11-09T10:46:43.784Z,16.06
2022-11-09T10:47:43.786Z,16.07
2022-11-09T10:48:46.258Z,16.07
2022-11-09T10:49:46.283Z,16.07
2022-11-09T10:50:43.741Z,16.03
2022-11-09T10:51:43.725Z,15.95
2022-11-09T10:52:47.490Z,15.98
2022-11-09T10:53:43.698Z,15.96
2022-11-09T10:54:43.700Z,15.91
2022-11-09T10:55:43.738Z,16.01
2022-11-09T10:57:05.152Z,15.92
2022-11-09T10:57:48.296Z,15.89
2022-11-09T10:58:43.644Z,15.91
2022-11-09T10:59:43.681Z,15.95
2022-11-09T11:00:43.624Z,15.88
2022-11-09T11:01:43.796Z,15.84
2022-11-09T11:02:43.661Z,15.92
2022-11-09T11:03:43.621Z,15.93
2022-11-09T11:04:43.666Z,15.96
2022-11-09T11:05:43.589Z,15.95
2022-11-09T11:06:44.174Z,15.89
2022-11-09T11:07:45.140Z,15.86
2022-11-09T11:08:43.548Z,15.88
2022-11-09T11:09:43.559Z,15.80
2022-11-09T11:10:43.515Z,15.73
2022-11-09T11:11:43.533Z,15.73
2022-11-09T11:12:43.495Z,15.89
2022-11-09T11:13:43.492Z,15.71
2022-11-09T11:14:43.951Z,15.84
2022-11-09T11:15:44.519Z,15.86
2022-11-09T11:16:43.479Z,15.89
2022-11-09T11:17:43.453Z,15.95
2022-11-09T11:18:43.434Z,15.93
2022-11-09T11:19:44.411Z,15.86
2022-11-09T11:20:43.465Z,15.91
2022-11-09T11:21:43.414Z,15.93
2022-11-09T11:22:43.380Z,15.93
2022-11-09T11:23:43.474Z,15.98
2022-11-09T11:24:46.331Z,15.96
2022-11-09T11:25:43.344Z,16.01
2022-11-09T11:26:43.342Z,16.07
2022-11-09T11:27:43.328Z,15.95
2022-11-09T11:28:43.333Z,15.96
2022-11-09T11:29:43.354Z,15.99
2022-11-09T11:30:43.298Z,15.91
2022-11-09T11:31:43.299Z,15.85
2022-11-09T11:32:49.874Z,15.89
2022-11-09T11:33:44.780Z,15.77
2022-11-09T11:34:59.843Z,15.76
2022-11-09T11:35:44.248Z,15.80
2022-11-09T11:36:43.227Z,15.71
2022-11-09T11:37:43.275Z,15.77
2022-11-09T11:38:43.206Z,15.86
2022-11-09T11:39:43.366Z,15.74
2022-11-09T11:40:43.188Z,15.71
2022-11-09T11:41:43.554Z,15.67
2022-11-09T11:42:46.314Z,15.74
2022-11-09T11:43:43.148Z,15.66
2022-11-09T11:44:43.217Z,15.73
2022-11-09T11:45:43.159Z,15.68
2022-11-09T11:46:43.132Z,15.73
2022-11-09T11:47:43.101Z,15.74
2022-11-09T11:48:43.097Z,15.77
2022-11-09T11:49:43.119Z,15.89
2022-11-09T11:50:43.218Z,15.91
2022-11-09T11:51:45.824Z,15.96
2022-11-09T11:52:43.093Z,15.96
2022-11-09T11:53:43.671Z,16.06
2022-11-09T11:54:43.061Z,15.99
2022-11-09T11:55:43.011Z,16.01
2022-11-09T11:56:43.036Z,16.03
2022-11-09T11:57:43.030Z,16.08
2022-11-09T11:58:43.018Z,16.08
2022-11-09T11:59:43.425Z,16.07
2022-11-09T12:00:46.820Z,16.08
2022-11-09T12:01:42.943Z,16.10
2022-11-09T12:02:43.014Z,16.17
2022-11-09T12:03:46.941Z,16.14
2022-11-09T12:04:43.937Z,16.26
2022-11-09T12:05:42.920Z,16.22
2022-11-09T12:06:44.317Z,16.33
2022-11-09T12:07:42.903Z,16.18
2022-11-09T12:08:42.921Z,16.26
2022-11-09T12:09:49.482Z,16.27
2022-11-09T12:10:42.848Z,16.27
2022-11-09T12:11:42.847Z,16.16
2022-11-09T12:12:42.857Z,16.13
2022-11-09T12:13:48.435Z,16.13
2022-11-09T12:14:43.820Z,16.10
2022-11-09T12:15:42.967Z,16.25
2022-11-09T12:16:43.516Z,16.30
2022-11-09T12:17:42.780Z,16.22
2022-11-09T12:18:43.503Z,16.33
2022-11-09T12:19:42.787Z,16.23
2022-11-09T12:20:42.752Z,16.33
2022-11-09T12:21:42.757Z,16.27
2022-11-09T12:22:42.771Z,16.32
2022-11-09T12:23:42.772Z,16.25
2022-11-09T12:24:42.752Z,16.18
2022-11-09T12:25:42.751Z,16.07
2022-11-09T12:26:43.555Z,16.08
2022-11-09T12:27:42.792Z,16.04
2022-11-09T12:28:42.703Z,16.01
2022-11-09T12:29:42.667Z,15.98
2022-11-09T12:30:42.626Z,15.99
2022-11-09T12:31:42.620Z,15.96
2022-11-09T12:32:42.651Z,15.92
2022-11-09T12:33:44.051Z,15.88
2022-11-09T12:34:43.024Z,15.85
2022-11-09T12:35:48.398Z,15.91
2022-11-09T12:36:42.567Z,15.88
2022-11-09T12:37:42.577Z,15.86
2022-11-09T12:38:42.538Z,15.95
2022-11-09T12:39:42.545Z,15.89
2022-11-09T12:40:42.526Z,15.92
2022-11-09T12:41:42.505Z,15.95
2022-11-09T12:42:42.501Z,15.93
2022-11-09T12:43:42.618Z,15.98
2022-11-09T12:44:43.075Z,15.95
2022-11-09T12:45:42.485Z,15.98
2022-11-09T12:46:42.568Z,15.99
2022-11-09T12:47:42.453Z,15.89
2022-11-09T12:48:42.552Z,15.95
2022-11-09T12:49:42.422Z,15.91
2022-11-09T12:50:42.408Z,15.95
2022-11-09T12:51:42.396Z,15.92
2022-11-09T12:52:42.510Z,15.88